Time;durP1;ratioP1;P1;durP2;ratioP2;P2;SDS_P1;SDS_P2;PMS_P1;PMS_P2;Temp;Humidity;BMP_temperature;BMP_pressure;BME280_temperature;BME280_humidity;BME280_pressure;Samples;Min_cycle;Max_cycle;Signal;HPM_P1;HPM_P2
2023/12/09 00:02:03;;;;;;;32.83;7.28;;;;;;;6.45;100.00;100821.88;5039347;28;20115;-84
2023/12/09 00:04:29;;;;;;;28.15;6.72;;;;;;;6.50;100.00;100818.88;5000554;28;20029;-84
2023/12/09 00:06:54;;;;;;;43.00;8.13;;;;;;;6.48;100.00;100827.13;5034146;28;20029;-84
2023/12/09 00:09:20;;;;;;;49.28;7.50;;;;;;;6.49;100.00;100822.56;5003236;28;20030;-84
2023/12/09 00:11:45;;;;;;;32.92;6.78;;;;;;;6.54;100.00;100815.88;5017889;28;20689;-84
2023/12/09 00:14:11;;;;;;;33.75;7.45;;;;;;;6.44;100.00;100809.25;5014817;28;20072;-85
2023/12/09 00:16:36;;;;;;;37.58;7.38;;;;;;;6.43;100.00;100808.38;4991319;28;20030;-84
2023/12/09 00:19:02;;;;;;;48.33;7.85;;;;;;;6.44;100.00;100815.56;5039196;28;20041;-85
2023/12/09 00:21:27;;;;;;;42.50;7.30;;;;;;;6.43;100.00;100813.81;5000069;28;20120;-83
2023/12/09 00:23:52;;;;;;;35.15;7.15;;;;;;;6.44;100.00;100806.53;5034068;28;20036;-83
2023/12/09 00:26:18;;;;;;;36.03;8.15;;;;;;;6.46;100.00;100812.75;5014182;28;20037;-83
2023/12/09 00:28:44;;;;;;;45.65;7.50;;;;;;;6.47;100.00;100802.75;5012283;28;20045;-83
2023/12/09 00:31:10;;;;;;;39.42;8.02;;;;;;;6.46;100.00;100809.16;5026309;28;20036;-83
2023/12/09 00:33:35;;;;;;;36.83;7.15;;;;;;;6.40;100.00;100807.69;5008247;28;20037;-82
2023/12/09 00:36:01;;;;;;;39.90;6.68;;;;;;;6.42;100.00;100805.75;4996499;28;20395;-83
2023/12/09 00:38:26;;;;;;;49.70;7.75;;;;;;;6.42;100.00;100812.06;5012181;28;20044;-82
2023/12/09 00:40:52;;;;;;;39.78;6.80;;;;;;;6.44;100.00;100814.69;4996543;28;20366;-83
2023/12/09 00:43:17;;;;;;;38.35;6.95;;;;;;;6.40;100.00;100816.72;4993538;28;20082;-82
2023/12/09 00:45:43;;;;;;;47.03;7.72;;;;;;;6.40;100.00;100819.44;4996903;28;20021;-83
2023/12/09 00:48:08;;;;;;;37.10;7.28;;;;;;;6.44;100.00;100820.13;4995815;28;20046;-83
2023/12/09 00:50:33;;;;;;;31.55;7.72;;;;;;;6.43;100.00;100819.25;5013411;28;20045;-83
2023/12/09 00:52:59;;;;;;;34.47;7.20;;;;;;;6.41;100.00;100818.50;5012334;28;20629;-83
2023/12/09 00:55:24;;;;;;;41.08;7.88;;;;;;;6.41;100.00;100806.72;5014086;28;20041;-82
2023/12/09 00:57:49;;;;;;;35.33;7.63;;;;;;;6.42;100.00;100812.06;4983070;28;20028;-82
2023/12/09 01:00:15;;;;;;;41.88;7.97;;;;;;;6.49;100.00;100807.09;5013445;28;20044;-82
2023/12/09 01:02:41;;;;;;;35.63;7.95;;;;;;;6.49;100.00;100806.25;4997863;28;20429;-82
2023/12/09 01:05:06;;;;;;;35.92;8.40;;;;;;;6.54;100.00;100821.31;4998329;28;20029;-82
2023/12/09 01:07:32;;;;;;;45.17;6.68;;;;;;;6.54;100.00;100801.38;5027577;28;20344;-82
2023/12/09 01:09:57;;;;;;;43.05;7.15;;;;;;;6.54;100.00;100798.66;5023585;28;20026;-82
2023/12/09 01:12:23;;;;;;;34.05;8.32;;;;;;;6.56;100.00;100794.00;5031398;28;20034;-82
2023/12/09 01:14:48;;;;;;;36.72;8.60;;;;;;;6.58;100.00;100798.38;4994712;28;20041;-82
2023/12/09 01:17:14;;;;;;;43.13;8.10;;;;;;;6.59;100.00;100802.84;5010272;28;20036;-82
2023/12/09 01:19:39;;;;;;;33.60;8.27;;;;;;;6.59;100.00;100812.84;5009029;28;20228;-82
2023/12/09 01:22:04;;;;;;;42.25;8.15;;;;;;;6.54;100.00;100807.72;4995853;28;20037;-82
2023/12/09 01:24:30;;;;;;;43.85;7.13;;;;;;;6.63;100.00;100807.13;4993711;28;20026;-82
2023/12/09 01:26:55;;;;;;;38.47;7.43;;;;;;;6.65;100.00;100807.00;5013416;28;20049;-82
2023/12/09 01:29:21;;;;;;;46.85;8.00;;;;;;;6.59;100.00;100804.69;5027161;28;20500;-82
2023/12/09 01:31:46;;;;;;;38.08;7.55;;;;;;;6.51;100.00;100802.47;4991285;28;20040;-82
2023/12/09 01:34:11;;;;;;;34.35;7.63;;;;;;;6.51;100.00;100810.63;5006367;28;20064;-82
2023/12/09 01:36:37;;;;;;;39.80;7.38;;;;;;;6.53;100.00;100803.22;4997089;28;20499;-82
2023/12/09 01:39:02;;;;;;;35.30;7.28;;;;;;;6.56;100.00;100810.31;5008003;28;20037;-82
2023/12/09 01:41:28;;;;;;;48.65;8.88;;;;;;;6.49;100.00;100801.66;5014148;28;20037;-82
2023/12/09 01:43:54;;;;;;;42.70;8.00;;;;;;;6.49;100.00;100800.81;5013667;28;20124;-83
2023/12/09 01:46:20;;;;;;;47.03;8.32;;;;;;;6.43;100.00;100800.22;5013237;28;20155;-82
2023/12/09 01:48:47;;;;;;;49.95;8.45;;;;;;;6.44;100.00;100806.53;5030581;28;20044;-82
2023/12/09 01:51:15;;;;;;;41.13;7.28;;;;;;;6.48;100.00;100809.91;4995075;28;20596;-82
2023/12/09 01:53:42;;;;;;;49.13;9.35;;;;;;;6.43;100.00;100802.94;5011142;28;20045;-82
2023/12/09 01:56:10;;;;;;;41.53;8.57;;;;;;;6.42;100.00;100787.59;5027601;28;20112;-82
2023/12/09 01:58:37;;;;;;;37.47;7.22;;;;;;;6.36;100.00;100790.72;5027524;28;20033;-82
2023/12/09 02:01:03;;;;;;;41.38;8.32;;;;;;;6.31;100.00;100778.34;5005769;28;20025;-82
2023/12/09 02:03:31;;;;;;;42.20;8.73;;;;;;;6.32;100.00;100774.69;5006226;28;20112;-83
2023/12/09 02:05:57;;;;;;;51.13;8.25;;;;;;;6.32;100.00;100769.25;5030168;28;20035;-83
2023/12/09 02:08:22;;;;;;;28.77;7.68;;;;;;;6.28;100.00;100768.56;5029578;28;20116;-82
2023/12/09 02:11:00;;;;;;;39.83;7.95;;;;;;;6.27;100.00;100765.94;4993269;28;20120;-83
2023/12/09 02:13:51;;;;;;;44.60;8.75;;;;;;;6.14;100.00;100758.53;5026201;28;20044;-82
2023/12/09 02:16:34;;;;;;;42.30;7.80;;;;;;;6.11;100.00;100755.13;5023411;28;20237;-82
2023/12/09 02:19:00;;;;;;;47.70;8.38;;;;;;;6.14;100.00;100758.53;5019625;28;20113;-81
2023/12/09 02:21:26;;;;;;;46.75;8.27;;;;;;;6.14;100.00;100758.53;5009114;28;20056;-82
2023/12/09 02:23:52;;;;;;;44.50;8.77;;;;;;;6.11;100.00;100750.56;4971489;28;20068;-82
2023/12/09 02:26:22;;;;;;;42.83;8.68;;;;;;;6.15;100.00;100752.13;4990255;28;20454;-82
2023/12/09 02:28:59;;;;;;;39.20;8.10;;;;;;;6.06;100.00;100744.53;5041566;28;20029;-82
2023/12/09 02:31:30;;;;;;;40.53;8.70;;;;;;;6.03;100.00;100748.34;5038924;28;20174;-82
2023/12/09 02:33:56;;;;;;;35.72;8.15;;;;;;;6.03;100.00;100756.50;5015785;28;20025;-82
2023/12/09 02:36:24;;;;;;;47.17;8.95;;;;;;;6.00;100.00;100759.41;5012545;28;20037;-82
2023/12/09 02:38:51;;;;;;;42.30;7.65;;;;;;;6.01;100.00;100762.97;5034804;28;20433;-82
2023/12/09 02:41:18;;;;;;;50.42;8.65;;;;;;;5.92;100.00;100753.53;5017204;28;20032;-85
2023/12/09 02:43:45;;;;;;;40.20;8.25;;;;;;;5.90;100.00;100750.00;5035887;28;20026;-85
2023/12/09 02:46:15;;;;;;;42.65;8.73;;;;;;;5.97;100.00;100755.97;5034259;28;20111;-85
2023/12/09 02:48:41;;;;;;;50.35;10.48;;;;;;;5.95;100.00;100744.31;5037185;28;20475;-85
2023/12/09 02:51:07;;;;;;;45.97;9.00;;;;;;;5.87;100.00;100747.47;5015371;28;20028;-85
2023/12/09 02:53:33;;;;;;;46.55;10.05;;;;;;;5.81;100.00;100735.16;5036427;28;20060;-85
2023/12/09 02:55:58;;;;;;;42.17;8.55;;;;;;;5.73;100.00;100740.19;5038082;28;20112;-85
2023/12/09 02:58:24;;;;;;;42.80;9.38;;;;;;;5.65;100.00;100732.50;5029892;28;20064;-85
2023/12/09 03:00:49;;;;;;;47.80;9.32;;;;;;;5.66;100.00;100731.53;5018374;28;20037;-85
2023/12/09 03:03:14;;;;;;;44.20;9.50;;;;;;;5.65;100.00;100723.47;5005335;28;20474;-86
2023/12/09 03:05:40;;;;;;;42.72;9.90;;;;;;;5.67;100.00;100730.59;5026912;28;20041;-84
2023/12/09 03:08:05;;;;;;;41.28;9.13;;;;;;;5.73;100.00;100733.88;5020212;28;20059;-85
2023/12/09 03:10:30;;;;;;;45.17;9.15;;;;;;;5.71;100.00;100723.13;5019370;28;20034;-85
2023/12/09 03:12:56;;;;;;;38.90;9.10;;;;;;;5.69;100.00;100720.50;5029267;28;20143;-85
2023/12/09 03:15:21;;;;;;;45.20;8.95;;;;;;;5.64;100.00;100711.75;4993976;28;20477;-85
2023/12/09 03:17:47;;;;;;;47.47;8.95;;;;;;;5.67;100.00;100719.72;5028020;28;20028;-85
2023/12/09 03:20:12;;;;;;;53.28;9.95;;;;;;;5.65;100.00;100715.34;5028401;28;20030;-85
2023/12/09 03:22:38;;;;;;;50.35;9.70;;;;;;;5.66;100.00;100709.81;5018355;28;20029;-85
2023/12/09 03:25:04;;;;;;;48.92;9.95;;;;;;;5.60;100.00;100712.03;5029824;28;20035;-84
2023/12/09 03:27:29;;;;;;;51.53;9.98;;;;;;;5.67;100.00;100710.69;5023572;28;20058;-85
2023/12/09 03:29:55;;;;;;;40.00;9.43;;;;;;;5.63;100.00;100729.00;5004237;28;20402;-85
2023/12/09 03:32:20;;;;;;;42.55;9.20;;;;;;;5.65;100.00;100694.47;5006584;28;20034;-85
2023/12/09 03:34:46;;;;;;;47.53;9.68;;;;;;;5.65;100.00;100745.22;5036036;28;20037;-85
2023/12/09 03:37:11;;;;;;;36.90;8.60;;;;;;;5.71;100.00;100691.38;5000422;28;20556;-84
2023/12/09 03:39:36;;;;;;;38.08;8.90;;;;;;;5.75;100.00;100730.09;5036116;28;20040;-84
2023/12/09 03:42:02;;;;;;;43.25;8.45;;;;;;;5.73;100.00;100695.88;5037239;28;20030;-84
2023/12/09 03:44:27;;;;;;;55.30;9.95;;;;;;;5.80;100.00;100727.09;5007804;28;20867;-84
2023/12/09 03:46:53;;;;;;;44.45;9.68;;;;;;;5.77;100.00;100702.84;5017923;28;20030;-84
2023/12/09 03:49:18;;;;;;;34.40;7.97;;;;;;;5.78;100.00;100713.59;5018302;28;20031;-84
2023/12/09 03:51:43;;;;;;;41.17;8.90;;;;;;;5.69;100.00;100696.03;5017214;28;20371;-84
2023/12/09 03:54:09;;;;;;;48.17;8.63;;;;;;;5.74;100.00;100701.19;5030569;28;20083;-84
2023/12/09 03:56:34;;;;;;;37.78;9.43;;;;;;;5.71;100.00;100702.25;5020900;28;20045;-84
2023/12/09 03:59:00;;;;;;;49.70;9.27;;;;;;;5.61;100.00;100689.34;5039950;28;20033;-84
2023/12/09 04:01:25;;;;;;;32.88;9.00;;;;;;;5.59;100.00;100697.59;5022168;28;20044;-84
2023/12/09 04:03:51;;;;;;;38.10;9.15;;;;;;;5.58;100.00;100698.53;5022482;28;20042;-83
2023/12/09 04:06:17;;;;;;;37.97;8.60;;;;;;;5.57;100.00;100691.34;5016563;28;20140;-84
2023/12/09 04:08:42;;;;;;;41.05;8.90;;;;;;;5.57;100.00;100687.78;5017932;28;20040;-84
2023/12/09 04:11:08;;;;;;;42.88;8.70;;;;;;;5.57;100.00;100683.19;5025489;28;20520;-84
2023/12/09 04:13:33;;;;;;;44.88;7.60;;;;;;;5.61;100.00;100670.34;5019655;28;20166;-84
2023/12/09 04:16:01;;;;;;;32.90;8.23;;;;;;;5.57;100.00;100669.63;5031384;28;21656;-84
2023/12/09 04:18:27;;;;;;;51.30;9.18;;;;;;;5.58;100.00;100670.53;5034953;28;20029;-85
2023/12/09 04:20:52;;;;;;;43.63;7.68;;;;;;;5.56;100.00;100667.00;5004655;28;20037;-83
2023/12/09 04:23:18;;;;;;;39.80;7.70;;;;;;;5.53;100.00;100681.66;5032924;28;20483;-84
2023/12/09 04:25:44;;;;;;;38.78;7.88;;;;;;;5.55;100.00;100684.28;5020787;28;20560;-84
2023/12/09 04:28:11;;;;;;;49.08;8.25;;;;;;;5.47;100.00;100665.72;5039964;28;20045;-85
2023/12/09 04:30:37;;;;;;;37.63;8.70;;;;;;;5.49;100.00;100677.38;5041648;28;20754;-85
2023/12/09 04:33:03;;;;;;;41.35;9.68;;;;;;;5.45;100.00;100662.25;5038718;28;20025;-84
2023/12/09 04:35:29;;;;;;;37.60;7.30;;;;;;;5.45;100.00;100656.81;5045301;28;20506;-84
2023/12/09 04:37:54;;;;;;;40.05;7.35;;;;;;;5.41;100.00;100655.25;5037257;28;20498;-84
2023/12/09 04:40:20;;;;;;;44.58;8.20;;;;;;;5.44;100.00;100657.78;5030274;28;20029;-84
2023/12/09 04:42:46;;;;;;;51.28;8.52;;;;;;;5.39;100.00;100651.75;5035632;28;20037;-84
2023/12/09 04:45:11;;;;;;;47.65;7.60;;;;;;;5.34;100.00;100647.50;5036348;28;20041;-84
2023/12/09 04:47:37;;;;;;;38.58;7.40;;;;;;;5.34;100.00;100646.59;5014638;28;20025;-85
2023/12/09 04:50:04;;;;;;;37.40;7.28;;;;;;;5.29;100.00;100641.44;5034430;28;20390;-85
2023/12/09 04:52:29;;;;;;;34.08;7.82;;;;;;;5.28;100.00;100647.84;5014642;28;20618;-85
2023/12/09 04:54:55;;;;;;;47.28;7.68;;;;;;;5.25;100.00;100645.31;5007094;28;20117;-85
2023/12/09 04:57:21;;;;;;;31.27;7.03;;;;;;;5.23;100.00;100647.25;5012805;28;20052;-84
2023/12/09 04:59:46;;;;;;;36.45;7.38;;;;;;;5.20;100.00;100636.59;5034490;28;20078;-82
2023/12/09 05:02:12;;;;;;;32.08;6.93;;;;;;;5.14;100.00;100626.09;5027812;28;20034;-82
2023/12/09 05:04:37;;;;;;;26.15;6.97;;;;;;;5.25;100.00;100634.47;5026350;28;20033;-82
2023/12/09 05:07:03;;;;;;;39.03;7.13;;;;;;;5.32;100.00;100627.69;5020543;28;20044;-82
2023/12/09 05:09:28;;;;;;;44.75;7.80;;;;;;;5.31;100.00;100623.25;5039419;28;20402;-82
2023/12/09 05:11:54;;;;;;;45.33;8.25;;;;;;;5.37;100.00;100621.97;5006436;28;20045;-82
2023/12/09 05:14:19;;;;;;;36.72;6.90;;;;;;;5.29;100.00;100619.72;5039115;28;20040;-82
2023/12/09 05:16:44;;;;;;;34.40;7.32;;;;;;;5.38;100.00;100621.03;5014586;28;20035;-82
2023/12/09 05:19:10;;;;;;;35.50;6.53;;;;;;;5.40;100.00;100612.78;5013705;28;20151;-82
2023/12/09 05:21:35;;;;;;;38.53;6.43;;;;;;;5.47;100.00;100606.00;5026784;28;20112;-82
2023/12/09 05:24:00;;;;;;;33.38;7.05;;;;;;;5.48;100.00;100611.34;4980863;28;20125;-82
2023/12/09 05:26:28;;;;;;;32.58;7.03;;;;;;;5.46;100.00;100618.72;5017009;28;20030;-82
2023/12/09 05:28:55;;;;;;;43.70;8.00;;;;;;;5.45;100.00;100616.09;5062689;28;20045;-82
2023/12/09 05:31:21;;;;;;;31.63;7.32;;;;;;;5.42;100.00;100613.56;5036739;28;20130;-82
2023/12/09 05:33:47;;;;;;;37.05;7.78;;;;;;;5.46;100.00;100616.00;5043911;28;20056;-82
2023/12/09 05:36:13;;;;;;;30.75;6.65;;;;;;;5.42;100.00;100610.84;5042910;28;20027;-82
2023/12/09 05:38:38;;;;;;;45.05;7.65;;;;;;;5.42;100.00;100608.13;5007469;28;20022;-82
2023/12/09 05:41:05;;;;;;;33.40;6.28;;;;;;;5.40;100.00;100604.63;5058848;28;20099;-82
2023/12/09 05:43:30;;;;;;;38.13;6.75;;;;;;;5.43;100.00;100604.47;5062119;28;20036;-82
2023/12/09 05:45:56;;;;;;;34.03;6.10;;;;;;;5.43;100.00;100590.88;5054728;28;20032;-82
2023/12/09 05:48:21;;;;;;;41.70;6.88;;;;;;;5.41;100.00;100596.41;5060462;28;20545;-81
2023/12/09 05:50:46;;;;;;;28.40;5.68;;;;;;;5.39;100.00;100597.44;5037488;28;20041;-82
2023/12/09 05:53:12;;;;;;;40.65;6.15;;;;;;;5.49;100.00;100602.22;5035493;28;20605;-82
2023/12/09 05:55:37;;;;;;;31.92;6.38;;;;;;;5.47;100.00;100601.44;5040860;28;20115;-82
2023/12/09 05:58:03;;;;;;;40.28;6.78;;;;;;;5.46;100.00;100590.66;5053990;28;20036;-81
2023/12/09 06:00:29;;;;;;;28.77;5.05;;;;;;;5.51;100.00;100592.13;5042325;28;20041;-82
2023/12/09 06:02:54;;;;;;;30.15;5.70;;;;;;;5.46;100.00;100593.38;5036039;28;20024;-82
2023/12/09 06:05:20;;;;;;;30.90;5.50;;;;;;;5.40;100.00;100597.38;5034349;28;20055;-81
2023/12/09 06:07:45;;;;;;;34.55;5.90;;;;;;;5.39;100.00;100592.88;5027079;28;20037;-82
2023/12/09 06:10:11;;;;;;;27.13;4.78;;;;;;;5.40;100.00;100591.06;5044153;28;20029;-82
2023/12/09 06:12:36;;;;;;;31.13;6.30;;;;;;;5.33;100.00;100596.88;5053591;28;20036;-82
2023/12/09 06:15:03;;;;;;;26.27;6.07;;;;;;;5.44;100.00;100589.91;5047461;28;20426;-82
2023/12/09 06:17:28;;;;;;;33.00;6.00;;;;;;;5.45;100.00;100584.38;5036147;28;20375;-81
2023/12/09 06:19:54;;;;;;;31.00;5.55;;;;;;;5.41;100.00;100579.22;5058122;28;20090;-82
2023/12/09 06:22:19;;;;;;;25.42;4.63;;;;;;;5.38;100.00;100569.44;4996267;28;20037;-83
2023/12/09 06:24:44;;;;;;;23.73;4.85;;;;;;;5.33;100.00;100569.72;5050252;28;20497;-82
2023/12/09 06:27:10;;;;;;;30.75;4.65;;;;;;;5.42;100.00;100579.13;4997245;28;20056;-83
2023/12/09 06:29:37;;;;;;;20.27;3.85;;;;;;;5.47;100.00;100576.13;5029948;28;20167;-82
2023/12/09 06:32:03;;;;;;;25.25;5.15;;;;;;;5.38;100.00;100558.59;5036369;28;20024;-82
2023/12/09 06:34:28;;;;;;;35.42;6.60;;;;;;;5.51;100.00;100559.56;5057272;28;20044;-82
2023/12/09 06:36:54;;;;;;;26.67;5.47;;;;;;;5.41;100.00;100543.94;5023830;28;20033;-82
2023/12/09 06:39:19;;;;;;;29.45;5.55;;;;;;;5.43;100.00;100552.88;5059067;28;20039;-82
2023/12/09 06:41:45;;;;;;;30.60;5.13;;;;;;;5.39;100.00;100549.44;5018338;28;20050;-82
2023/12/09 06:44:10;;;;;;;32.63;6.00;;;;;;;5.25;100.00;100544.91;5033792;28;20043;-82
2023/12/09 06:46:37;;;;;;;34.25;5.80;;;;;;;5.36;100.00;100535.19;5039498;28;20041;-83
2023/12/09 06:49:03;;;;;;;27.02;5.82;;;;;;;5.30;100.00;100537.34;5054671;28;20028;-82
2023/12/09 06:51:28;;;;;;;31.27;6.38;;;;;;;5.33;100.00;100529.00;5037359;28;20036;-83
2023/12/09 06:53:55;;;;;;;27.52;5.47;;;;;;;5.33;100.00;100522.72;5034383;28;22224;-82
2023/12/09 06:56:21;;;;;;;29.73;5.47;;;;;;;5.36;100.00;100527.06;5027570;28;20040;-82
2023/12/09 06:58:47;;;;;;;26.10;5.35;;;;;;;5.40;100.00;100513.19;5034999;28;20029;-81
2023/12/09 07:01:21;;;;;;;27.27;5.28;;;;;;;5.39;100.00;100510.59;5036794;28;20062;-82
2023/12/09 07:03:47;;;;;;;28.85;5.03;;;;;;;5.32;100.00;100500.09;5060878;28;20020;-82
2023/12/09 07:06:13;;;;;;;51.05;7.82;;;;;;;5.37;100.00;100516.09;5014618;28;20032;-83
2023/12/09 07:08:39;;;;;;;32.25;5.45;;;;;;;5.25;100.00;100496.03;5027187;28;20078;-82
2023/12/09 07:11:05;;;;;;;30.98;4.70;;;;;;;5.36;100.00;100484.50;5041820;28;20473;-84
2023/12/09 07:13:30;;;;;;;33.78;4.47;;;;;;;5.37;100.00;100466.38;5049483;28;20025;-85
2023/12/09 07:15:56;;;;;;;31.65;5.20;;;;;;;5.50;100.00;100470.03;5004612;28;20024;-85
2023/12/09 07:18:21;;;;;;;25.80;4.25;;;;;;;5.45;100.00;100470.34;5026051;28;20032;-84
2023/12/09 07:20:46;;;;;;;23.25;3.47;;;;;;;5.43;100.00;100452.41;5034696;28;20024;-84
2023/12/09 07:23:14;;;;;;;28.92;4.28;;;;;;;5.48;100.00;100445.72;4999931;28;20123;-84
2023/12/09 07:25:39;;;;;;;29.80;4.13;;;;;;;5.58;100.00;100440.56;5053515;28;20036;-83
2023/12/09 07:28:04;;;;;;;28.42;4.13;;;;;;;5.49;100.00;100424.84;5019186;28;20059;-84
2023/12/09 07:30:30;;;;;;;24.45;3.60;;;;;;;5.64;100.00;100421.16;5052355;28;20032;-84
2023/12/09 07:32:55;;;;;;;28.38;3.85;;;;;;;5.65;100.00;100416.56;5022380;28;20486;-85
2023/12/09 07:35:21;;;;;;;24.67;4.80;;;;;;;5.79;100.00;100429.22;5055653;28;20068;-86
2023/12/09 07:37:46;;;;;;;34.75;4.43;;;;;;;5.74;100.00;100434.09;5003835;28;20061;-85
2023/12/09 07:40:12;;;;;;;20.27;3.72;;;;;;;5.82;100.00;100429.94;5051792;28;20029;-85
2023/12/09 07:42:38;;;;;;;30.35;5.40;;;;;;;5.86;100.00;100438.75;5021808;28;20040;-84
2023/12/09 07:45:04;;;;;;;20.08;3.00;;;;;;;5.93;100.00;100431.91;5022387;28;20028;-84
2023/12/09 07:47:30;;;;;;;26.60;4.47;;;;;;;5.87;100.00;100438.66;5034448;28;20037;-85
2023/12/09 07:49:56;;;;;;;24.83;3.58;;;;;;;5.92;100.00;100413.88;5045693;28;20035;-87
2023/12/09 07:52:21;;;;;;;13.80;3.17;;;;;;;5.96;100.00;100407.28;5046699;28;20117;-86
2023/12/09 07:54:47;;;;;;;19.00;3.28;;;;;;;5.85;100.00;100404.38;5050782;28;21036;-85
2023/12/09 07:57:14;;;;;;;19.92;3.42;;;;;;;5.85;100.00;100394.41;5055077;28;20025;-84
2023/12/09 07:59:39;;;;;;;24.85;3.95;;;;;;;5.88;100.00;100409.63;5031270;28;20109;-85
2023/12/09 08:02:05;;;;;;;21.05;3.47;;;;;;;5.92;100.00;100391.25;5033767;28;20119;-85
2023/12/09 08:04:30;;;;;;;19.50;3.30;;;;;;;6.06;100.00;100392.09;5022380;28;20098;-85
2023/12/09 08:06:56;;;;;;;23.55;3.72;;;;;;;5.99;100.00;100387.22;5028420;28;20086;-84
2023/12/09 08:09:21;;;;;;;28.33;3.92;;;;;;;6.02;100.00;100387.00;5026930;28;20106;-86
2023/12/09 08:11:48;;;;;;;21.55;3.05;;;;;;;6.05;100.00;100382.22;5043051;28;20431;-86
2023/12/09 08:14:13;;;;;;;21.52;3.42;;;;;;;6.03;100.00;100376.03;5041210;28;20554;-86
2023/12/09 08:16:39;;;;;;;19.65;3.75;;;;;;;6.07;100.00;100372.09;5027392;28;20124;-86
2023/12/09 08:19:05;;;;;;;33.88;3.92;;;;;;;6.08;100.00;100375.69;5045223;28;20021;-86
2023/12/09 08:21:37;;;;;;;19.45;2.67;;;;;;;6.09;100.00;100368.44;5071222;28;20105;-86
2023/12/09 08:24:03;;;;;;;21.30;2.90;;;;;;;6.11;100.00;100366.47;5057347;28;20024;-85
2023/12/09 08:26:28;;;;;;;28.15;3.85;;;;;;;6.16;100.00;100361.59;5039535;28;20410;-87
2023/12/09 08:28:54;;;;;;;22.48;3.33;;;;;;;6.29;100.00;100369.78;5029895;28;20072;-86
2023/12/09 08:31:21;;;;;;;19.98;3.72;;;;;;;6.22;100.00;100361.16;5030913;28;20040;-87
2023/12/09 08:33:46;;;;;;;18.52;3.03;;;;;;;6.28;100.00;100366.19;5062573;28;20152;-87
2023/12/09 08:36:12;;;;;;;16.42;3.20;;;;;;;6.37;100.00;100370.09;5060257;28;20029;-87
2023/12/09 08:38:37;;;;;;;14.95;2.92;;;;;;;6.43;100.00;100370.56;5025133;28;20025;-87
2023/12/09 08:41:03;;;;;;;13.10;2.78;;;;;;;6.47;100.00;100367.63;5042839;28;20154;-87
2023/12/09 08:43:28;;;;;;;14.27;2.78;;;;;;;6.44;100.00;100369.59;5039008;28;20371;-87
2023/12/09 08:45:54;;;;;;;16.77;2.88;;;;;;;6.48;100.00;100362.06;5042515;28;20033;-87
2023/12/09 08:48:19;;;;;;;18.77;2.90;;;;;;;6.56;100.00;100347.91;5022549;28;20120;-87
2023/12/09 08:50:45;;;;;;;24.98;4.25;;;;;;;6.63;100.00;100358.25;5009813;28;20024;-86
2023/12/09 08:53:10;;;;;;;15.23;2.53;;;;;;;6.67;100.00;100353.47;5029465;28;20186;-88
2023/12/09 08:55:35;;;;;;;17.42;2.40;;;;;;;6.75;100.00;100351.06;5049855;28;20379;-86
2023/12/09 08:58:01;;;;;;;10.63;2.13;;;;;;;6.77;100.00;100335.53;5022949;28;20040;-88
2023/12/09 09:00:27;;;;;;;14.55;2.28;;;;;;;6.79;100.00;100329.97;5020261;28;20029;-86
2023/12/09 09:02:55;;;;;;;18.58;2.42;;;;;;;6.85;100.00;100334.09;5022145;28;20032;-87
2023/12/09 09:05:22;;;;;;;13.05;2.25;;;;;;;6.88;100.00;100321.13;5060818;28;20033;-87
2023/12/09 09:07:47;;;;;;;29.67;3.25;;;;;;;6.92;100.00;100321.78;5046746;28;20100;-87
2023/12/09 09:10:16;;;;;;;21.23;3.25;;;;;;;6.90;100.00;100316.44;5022320;28;20151;-87
2023/12/09 09:12:43;;;;;;;16.58;2.20;;;;;;;6.95;100.00;100321.56;5047974;28;20033;-89
2023/12/09 09:15:08;;;;;;;24.10;2.50;;;;;;;7.03;100.00;100312.84;5031257;28;20075;-89
2023/12/09 09:17:34;;;;;;;12.95;2.10;;;;;;;7.03;100.00;100308.25;5001962;28;20030;-89
2023/12/09 09:20:00;;;;;;;16.00;2.42;;;;;;;7.06;100.00;100304.44;5025809;28;20029;-89
2023/12/09 09:22:26;;;;;;;21.95;2.63;;;;;;;7.14;100.00;100288.44;5038730;28;20032;-89
2023/12/09 09:24:51;;;;;;;18.52;2.42;;;;;;;7.11;100.00;100291.38;5040076;28;20098;-89
2023/12/09 09:27:17;;;;;;;14.98;2.53;;;;;;;7.05;100.00;100265.47;5021465;28;20506;-89
2023/12/09 09:29:43;;;;;;;12.57;1.70;;;;;;;6.94;100.00;100263.53;5052653;28;20076;-89
2023/12/09 09:32:08;;;;;;;20.52;2.17;;;;;;;6.93;100.00;100248.19;5013276;28;20048;-90
2023/12/09 09:34:35;;;;;;;16.65;2.08;;;;;;;7.00;100.00;100237.72;5038096;28;20236;-91
2023/12/09 09:37:01;;;;;;;12.90;2.35;;;;;;;7.00;100.00;100226.81;5025015;28;20498;-89
2023/12/09 09:39:26;;;;;;;13.95;1.83;;;;;;;7.10;100.00;100225.19;5022420;28;20042;-87
2023/12/09 09:42:08;;;;;;;11.90;1.80;;;;;;;7.04;100.00;100216.59;5041383;28;20028;-89
2023/12/09 09:44:38;;;;;;;15.70;2.58;;;;;;;7.08;100.00;100215.38;5020295;28;20505;-91
2023/12/09 09:47:07;;;;;;;18.77;3.05;;;;;;;7.08;100.00;100216.22;5054060;28;20124;-90
2023/12/09 09:49:35;;;;;;;13.75;1.83;;;;;;;7.18;100.00;100211.84;5022046;28;20394;-90
2023/12/09 09:52:02;;;;;;;11.45;2.20;;;;;;;7.10;100.00;100210.69;5068067;28;20021;-89
2023/12/09 09:54:31;;;;;;;12.40;2.03;;;;;;;7.14;100.00;100198.59;5047673;28;20458;-89
2023/12/09 09:57:03;;;;;;;13.95;2.20;;;;;;;7.19;100.00;100201.81;5020447;28;20045;-88
2023/12/09 09:59:29;;;;;;;9.43;1.75;;;;;;;7.16;100.00;100197.47;5027870;28;20557;-90
2023/12/09 10:01:54;;;;;;;12.98;2.00;;;;;;;7.27;100.00;100184.91;5043303;28;20109;-90
2023/12/09 10:04:20;;;;;;;9.98;2.33;;;;;;;7.30;100.00;100168.34;5017581;28;20030;-88
2023/12/09 10:06:46;;;;;;;15.75;1.85;;;;;;;7.29;100.00;100167.47;5029107;28;20443;-88
2023/12/09 10:09:13;;;;;;;14.73;2.28;;;;;;;7.29;100.00;100161.16;5048982;28;20496;-90
2023/12/09 10:11:39;;;;;;;15.82;1.75;;;;;;;7.26;100.00;100147.78;5059285;28;20058;-89
2023/12/09 10:14:05;;;;;;;13.52;2.40;;;;;;;7.40;100.00;100152.19;5046567;28;20458;-89
2023/12/09 10:16:30;;;;;;;22.65;2.10;;;;;;;7.39;100.00;100150.44;5036439;28;20029;-90
2023/12/09 10:18:56;;;;;;;11.75;1.98;;;;;;;7.44;100.00;100148.22;5018730;28;20036;-89
2023/12/09 10:21:22;;;;;;;13.68;2.00;;;;;;;7.45;100.00;100131.75;5012977;28;20047;-89
2023/12/09 10:23:47;;;;;;;15.60;1.90;;;;;;;7.43;100.00;100133.72;5032808;28;20020;-90
2023/12/09 10:26:14;;;;;;;13.73;1.88;;;;;;;7.50;100.00;100118.63;5018477;28;20494;-89
2023/12/09 10:28:40;;;;;;;15.98;2.22;;;;;;;7.44;100.00;100083.69;5036408;28;20113;-89
2023/12/09 10:31:07;;;;;;;5.65;1.60;;;;;;;7.51;100.00;100084.97;5036971;28;20013;-89
2023/12/09 10:33:35;;;;;;;16.65;2.85;;;;;;;7.56;100.00;100087.34;5024338;28;20474;-90
2023/12/09 10:36:03;;;;;;;16.10;1.60;;;;;;;7.55;100.00;100078.28;5040163;28;20021;-95
2023/12/09 10:38:31;;;;;;;15.27;1.83;;;;;;;7.71;100.00;100074.34;5052806;28;20021;-96
2023/12/09 10:40:57;;;;;;;10.57;1.60;;;;;;;7.78;100.00;100061.09;5015241;28;20111;-93
2023/12/09 10:43:23;;;;;;;11.27;1.67;;;;;;;7.72;100.00;100048.81;5017912;28;20111;-94
2023/12/09 10:45:49;;;;;;;11.43;1.65;;;;;;;7.65;100.00;100044.88;5040335;28;20033;-90
2023/12/09 10:48:15;;;;;;;8.68;1.52;;;;;;;7.71;100.00;100025.31;5037754;28;20032;-91
2023/12/09 10:50:44;;;;;;;12.43;1.70;;;;;;;7.66;100.00;100022.09;5042314;28;20040;-93
2023/12/09 10:53:09;;;;;;;6.22;1.20;;;;;;;7.76;100.00;100025.78;5039795;28;20592;-88
2023/12/09 10:55:35;;;;;;;15.93;2.50;;;;;;;7.78;100.00;100026.53;5033508;28;20040;-89
2023/12/09 10:58:04;;;;;;;15.32;1.45;;;;;;;7.75;100.00;100009.56;5018717;28;20119;-91
2023/12/09 11:00:32;;;;;;;8.43;1.73;;;;;;;7.77;100.00;99996.69;5030814;28;20092;-89
2023/12/09 11:02:57;;;;;;;12.57;1.65;;;;;;;7.82;100.00;99980.81;5031072;28;20094;-90
2023/12/09 11:05:24;;;;;;;7.63;1.70;;;;;;;7.82;100.00;99968.09;5054482;28;20052;-89
2023/12/09 11:07:51;;;;;;;18.83;1.88;;;;;;;7.80;100.00;99953.69;5052904;28;20504;-90
2023/12/09 11:10:18;;;;;;;9.80;1.70;;;;;;;7.72;100.00;99935.28;5020458;28;20029;-90
2023/12/09 11:12:47;;;;;;;13.73;2.05;;;;;;;7.65;100.00;99934.03;5051843;28;20497;-88